createdAt,value
2023-07-24T00:02:06.635Z,53.02
2023-07-24T00:04:34.355Z,52.71
2023-07-24T00:07:01.929Z,52.41
2023-07-24T00:09:30.131Z,53.03
2023-07-24T00:11:57.795Z,52.69
2023-07-24T00:14:25.228Z,53.44
2023-07-24T00:16:52.781Z,53.51
2023-07-24T00:19:20.437Z,52.14
2023-07-24T00:21:47.788Z,52.69
2023-07-24T00:24:15.206Z,53.06
2023-07-24T00:26:42.860Z,53.00
2023-07-24T00:29:10.279Z,53.00
2023-07-24T00:31:37.686Z,52.78
2023-07-24T00:34:05.382Z,53.92
2023-07-24T00:36:34.060Z,53.05
2023-07-24T00:39:01.438Z,52.81
2023-07-24T00:41:31.929Z,53.22
2023-07-24T00:43:59.342Z,54.90
2023-07-24T00:46:26.845Z,53.75
2023-07-24T00:48:55.184Z,53.46
2023-07-24T00:51:22.613Z,53.60
2023-07-24T00:53:50.064Z,53.07
2023-07-24T00:56:17.712Z,53.25
2023-07-24T00:58:45.197Z,53.41
2023-07-24T01:01:12.703Z,53.43
2023-07-24T01:03:40.385Z,53.04
2023-07-24T01:06:07.817Z,52.77
2023-07-24T01:08:35.227Z,52.97
2023-07-24T01:11:24.407Z,53.43
2023-07-24T01:14:10.584Z,54.55
2023-07-24T01:16:38.728Z,53.71
2023-07-24T01:19:13.624Z,54.39
2023-07-24T01:21:49.904Z,54.67
2023-07-24T01:24:29.822Z,53.62
2023-07-24T01:26:57.493Z,54.35
2023-07-24T01:29:24.908Z,53.98
2023-07-24T01:31:52.346Z,54.97
2023-07-24T01:34:20.098Z,55.70
2023-07-24T01:36:47.640Z,55.54
2023-07-24T01:39:15.030Z,56.05
2023-07-24T01:41:42.808Z,56.65
2023-07-24T01:44:10.201Z,55.92
2023-07-24T01:46:37.672Z,55.50
2023-07-24T01:49:05.316Z,55.54
2023-07-24T01:51:32.740Z,57.89
2023-07-24T01:54:00.139Z,56.98
2023-07-24T01:56:28.197Z,58.19
2023-07-24T01:58:55.834Z,58.06
2023-07-24T02:01:23.250Z,57.30
2023-07-24T02:03:51.187Z,56.91
2023-07-24T02:06:18.557Z,57.59
2023-07-24T02:08:49.926Z,57.67
2023-07-24T02:11:17.904Z,57.85
2023-07-24T02:13:45.656Z,59.50
2023-07-24T02:16:13.832Z,60.02
2023-07-24T02:18:42.966Z,59.02
2023-07-24T02:21:10.492Z,60.00
2023-07-24T02:23:38.134Z,59.53
2023-07-24T02:26:06.389Z,59.08
2023-07-24T02:28:35.391Z,58.07
2023-07-24T02:31:03.068Z,57.81
2023-07-24T02:33:30.458Z,59.28
2023-07-24T02:35:57.849Z,60.60
2023-07-24T02:38:25.535Z,59.96
2023-07-24T02:40:52.996Z,59.28
2023-07-24T02:43:20.451Z,59.00
2023-07-24T02:45:48.103Z,60.32
2023-07-24T02:48:15.554Z,58.47
2023-07-24T02:50:43.051Z,58.95
2023-07-24T02:53:10.795Z,58.44
2023-07-24T02:55:38.230Z,58.08
2023-07-24T02:58:05.684Z,57.71
2023-07-24T03:00:33.358Z,59.55
2023-07-24T03:03:00.820Z,58.61
2023-07-24T03:05:28.404Z,58.87
2023-07-24T03:07:56.049Z,59.29
2023-07-24T03:10:24.343Z,58.86
2023-07-24T03:12:51.700Z,60.05
2023-07-24T03:15:19.925Z,59.98
2023-07-24T03:17:47.369Z,59.40
2023-07-24T03:20:14.859Z,60.35
2023-07-24T03:22:43.029Z,60.27
2023-07-24T03:25:10.447Z,61.07
2023-07-24T03:27:37.886Z,61.08
2023-07-24T03:30:06.185Z,61.30
2023-07-24T03:32:33.614Z,61.35
2023-07-24T03:35:01.045Z,60.70
2023-07-24T03:37:28.816Z,60.68
2023-07-24T03:39:56.211Z,61.07
2023-07-24T03:42:32.922Z,61.36
2023-07-24T03:45:00.669Z,61.01
2023-07-24T03:47:28.105Z,61.92
2023-07-24T03:49:56.220Z,61.46
2023-07-24T03:52:23.909Z,61.71
2023-07-24T03:54:52.548Z,62.62
2023-07-24T03:57:20.084Z,63.18
2023-07-24T03:59:47.744Z,62.16
2023-07-24T04:02:15.240Z,61.86
2023-07-24T04:04:42.927Z,61.25
2023-07-24T04:07:10.283Z,60.87
2023-07-24T04:09:37.668Z,61.34
2023-07-24T04:12:06.060Z,60.55
2023-07-24T04:14:33.449Z,61.67
2023-07-24T04:17:01.109Z,61.37
2023-07-24T04:19:28.765Z,60.94
2023-07-24T04:21:56.196Z,59.57
2023-07-24T04:24:23.625Z,59.97
2023-07-24T04:26:51.269Z,60.34
2023-07-24T04:29:18.678Z,58.48
2023-07-24T04:31:46.045Z,58.25
2023-07-24T04:34:13.712Z,58.79
2023-07-24T04:36:41.094Z,58.47
2023-07-24T04:39:08.496Z,57.19
2023-07-24T04:41:36.178Z,56.48
2023-07-24T04:44:03.669Z,56.81
2023-07-24T04:46:31.452Z,56.73
2023-07-24T04:48:59.333Z,56.96
2023-07-24T04:51:26.707Z,55.85
2023-07-24T04:53:54.769Z,56.22
2023-07-24T04:56:22.459Z,54.83
2023-07-24T04:58:49.867Z,52.91
2023-07-24T05:01:17.341Z,52.07
2023-07-24T05:03:45.107Z,50.33
2023-07-24T05:06:12.470Z,46.68
2023-07-24T05:08:39.911Z,43.85
2023-07-24T05:11:07.579Z,41.89
2023-07-24T05:13:34.964Z,39.57
2023-07-24T05:16:02.337Z,38.73
2023-07-24T05:18:30.697Z,37.13
2023-07-24T05:20:58.111Z,36.18
2023-07-24T05:23:25.583Z,34.78
2023-07-24T05:26:02.738Z,36.02
2023-07-24T05:28:31.180Z,34.41
2023-07-24T05:31:03.934Z,33.25
2023-07-24T05:33:31.927Z,31.98
2023-07-24T05:36:00.544Z,30.35
2023-07-24T05:38:27.989Z,30.05
2023-07-24T05:40:59.099Z,29.42
2023-07-24T05:43:27.264Z,28.50
2023-07-24T05:45:55.182Z,28.26
2023-07-24T05:48:22.733Z,27.98
2023-07-24T05:50:50.453Z,26.77
2023-07-24T05:53:17.942Z,28.54
2023-07-24T05:55:45.581Z,27.98
2023-07-24T05:58:13.505Z,26.50
2023-07-24T06:00:40.866Z,26.29
2023-07-24T06:03:09.069Z,26.88
2023-07-24T06:05:36.571Z,26.57
2023-07-24T06:08:04.028Z,27.46
2023-07-24T06:10:31.680Z,26.65
2023-07-24T06:12:59.092Z,26.84
2023-07-24T06:15:28.520Z,26.57
2023-07-24T06:17:56.239Z,26.75
2023-07-24T06:20:23.691Z,25.69
2023-07-24T06:22:51.096Z,25.55
2023-07-24T06:25:18.759Z,26.45
2023-07-24T06:27:46.193Z,26.93
2023-07-24T06:30:16.219Z,26.08
2023-07-24T06:32:44.677Z,26.50
2023-07-24T06:35:12.169Z,25.73
2023-07-24T06:37:39.860Z,25.39
2023-07-24T06:40:08.582Z,25.29
2023-07-24T06:42:36.153Z,24.92
2023-07-24T06:45:05.449Z,24.40
2023-07-24T06:47:35.122Z,24.04
2023-07-24T06:50:03.766Z,23.32
2023-07-24T06:52:31.372Z,22.80
2023-07-24T06:54:59.437Z,23.07
2023-07-24T06:57:26.901Z,21.58
2023-07-24T06:59:55.507Z,22.24
2023-07-24T07:02:23.442Z,21.93
2023-07-24T07:04:50.880Z,22.16
2023-07-24T07:07:18.247Z,21.95
2023-07-24T07:09:45.915Z,22.48
2023-07-24T07:12:13.319Z,21.92
2023-07-24T07:14:40.662Z,21.57
2023-07-24T07:17:08.340Z,22.58
2023-07-24T07:19:37.188Z,21.96
2023-07-24T07:22:04.865Z,21.92
2023-07-24T07:24:32.525Z,20.18
2023-07-24T07:26:59.945Z,20.27
2023-07-24T07:29:27.322Z,20.15
2023-07-24T07:31:54.974Z,19.62
2023-07-24T07:34:22.376Z,20.28
2023-07-24T07:36:49.792Z,20.59
2023-07-24T07:39:17.418Z,19.17
2023-07-24T07:41:44.768Z,20.12
2023-07-24T07:44:12.223Z,19.21
2023-07-24T07:46:39.910Z,19.18
2023-07-24T07:49:07.366Z,19.38
2023-07-24T07:51:34.788Z,18.20
2023-07-24T07:54:02.472Z,19.67
2023-07-24T07:56:30.061Z,19.94
2023-07-24T07:58:57.685Z,20.04
2023-07-24T08:01:25.322Z,18.99
2023-07-24T08:03:53.093Z,18.67
2023-07-24T08:06:22.375Z,19.43
2023-07-24T08:08:49.781Z,20.03
2023-07-24T08:11:17.454Z,20.87
2023-07-24T08:13:44.832Z,20.65
2023-07-24T08:16:19.732Z,20.02
2023-07-24T08:18:48.830Z,18.84
2023-07-24T08:21:16.403Z,20.02
2023-07-24T08:23:43.830Z,19.36
2023-07-24T08:26:11.489Z,19.37
2023-07-24T08:28:43.120Z,20.10
2023-07-24T08:31:10.997Z,19.91
2023-07-24T08:33:38.590Z,20.41
2023-07-24T08:36:07.410Z,20.11
2023-07-24T08:38:35.726Z,20.74
2023-07-24T08:41:13.448Z,20.47
2023-07-24T08:43:42.892Z,19.23
2023-07-24T08:46:10.506Z,19.08
2023-07-24T08:48:41.433Z,19.54
2023-07-24T08:51:12.847Z,19.76
2023-07-24T08:53:41.650Z,17.87
2023-07-24T08:56:10.527Z,17.40
2023-07-24T08:58:38.035Z,16.61
2023-07-24T09:01:05.782Z,17.23
2023-07-24T09:03:33.926Z,18.35
2023-07-24T09:06:19.741Z,18.57
2023-07-24T09:08:47.390Z,18.08
2023-07-24T09:11:15.084Z,17.57
2023-07-24T09:13:44.044Z,17.01
2023-07-24T09:16:32.383Z,16.55
2023-07-24T09:19:11.034Z,17.11
2023-07-24T09:21:39.280Z,15.53
2023-07-24T09:24:14.340Z,16.38
2023-07-24T09:26:51.969Z,14.78
2023-07-24T09:29:19.566Z,14.20
2023-07-24T09:31:47.211Z,14.84
2023-07-24T09:34:17.931Z,14.81
2023-07-24T09:36:45.632Z,14.26
2023-07-24T09:39:13.347Z,14.03
2023-07-24T09:41:41.797Z,13.49
2023-07-24T09:44:09.384Z,13.49
2023-07-24T09:46:45.761Z,13.56
2023-07-24T09:49:15.517Z,14.12
2023-07-24T09:51:43.914Z,14.31
2023-07-24T09:54:15.183Z,13.09
2023-07-24T09:56:50.571Z,13.14
2023-07-24T09:59:23.105Z,13.66
2023-07-24T10:01:50.834Z,13.94
2023-07-24T10:04:18.619Z,13.68
2023-07-24T10:06:46.200Z,13.32
2023-07-24T10:09:13.587Z,12.81
2023-07-24T10:11:41.254Z,12.70
2023-07-24T10:14:08.739Z,12.59
2023-07-24T10:16:36.157Z,12.26
2023-07-24T10:19:17.123Z,12.28
2023-07-24T10:21:48.449Z,12.15
2023-07-24T10:24:35.331Z,12.36
2023-07-24T10:27:07.288Z,12.13
2023-07-24T10:29:37.005Z,12.40
2023-07-24T10:32:05.032Z,13.13
2023-07-24T10:34:39.828Z,12.65
2023-07-24T10:37:11.035Z,12.67
2023-07-24T10:39:41.960Z,13.63
2023-07-24T10:42:10.592Z,12.92
2023-07-24T10:44:38.340Z,13.78
2023-07-24T10:47:05.796Z,14.35
2023-07-24T10:49:33.446Z,14.78
2023-07-24T10:52:00.824Z,14.74
2023-07-24T10:54:28.244Z,15.24
2023-07-24T10:57:02.261Z,14.68
2023-07-24T10:59:39.711Z,16.39
2023-07-24T11:02:08.280Z,18.11
2023-07-24T11:04:36.275Z,18.58
2023-07-24T11:07:03.885Z,20.60
2023-07-24T11:09:38.493Z,21.31
2023-07-24T11:12:15.848Z,22.07
2023-07-24T11:14:57.044Z,22.03
2023-07-24T11:17:41.595Z,22.18
2023-07-24T11:20:16.606Z,23.02
2023-07-24T11:22:44.856Z,23.27
2023-07-24T11:25:12.875Z,25.00
2023-07-24T11:27:46.133Z,24.49
2023-07-24T11:30:14.328Z,23.84
2023-07-24T11:32:42.367Z,24.34
2023-07-24T11:35:10.073Z,24.27
2023-07-24T11:37:38.068Z,25.39
2023-07-24T11:40:12.309Z,25.41
2023-07-24T11:42:41.188Z,24.41
2023-07-24T11:45:10.978Z,25.56
2023-07-24T11:47:50.933Z,25.21
2023-07-24T11:50:19.052Z,25.10
2023-07-24T11:52:48.011Z,25.38
2023-07-24T11:55:20.586Z,25.67
2023-07-24T11:57:58.475Z,26.32
2023-07-24T12:00:26.295Z,26.35
2023-07-24T12:02:54.253Z,26.38
2023-07-24T12:05:23.111Z,26.30
2023-07-24T12:07:50.759Z,26.56
2023-07-24T12:10:27.981Z,26.82
2023-07-24T12:13:01.022Z,27.42
2023-07-24T12:15:28.953Z,27.70
2023-07-24T12:17:58.114Z,27.55
2023-07-24T12:20:25.900Z,27.20
2023-07-24T12:22:55.011Z,27.05
2023-07-24T12:25:22.860Z,28.20
2023-07-24T12:27:50.508Z,28.37
2023-07-24T12:30:18.498Z,28.47
2023-07-24T12:32:46.314Z,28.07
2023-07-24T12:35:16.858Z,28.09
2023-07-24T12:37:46.989Z,28.23
2023-07-24T12:40:14.922Z,28.23
2023-07-24T12:42:42.568Z,28.95
2023-07-24T12:45:10.643Z,28.78
2023-07-24T12:47:38.360Z,28.97
2023-07-24T12:50:08.260Z,29.08
2023-07-24T12:52:36.530Z,28.71
2023-07-24T12:55:04.415Z,29.07
2023-07-24T12:57:33.164Z,29.50
2023-07-24T13:00:01.104Z,29.29
2023-07-24T13:02:29.532Z,29.09
2023-07-24T13:04:57.196Z,28.83
2023-07-24T13:07:25.119Z,28.93
2023-07-24T13:09:53.298Z,28.87
2023-07-24T13:12:20.998Z,28.64
2023-07-24T13:14:48.976Z,28.84
2023-07-24T13:17:16.632Z,28.16
2023-07-24T13:19:44.267Z,27.90
2023-07-24T13:22:13.200Z,28.10
2023-07-24T13:24:40.929Z,27.44
2023-07-24T13:27:08.638Z,26.48
2023-07-24T13:29:36.589Z,26.49
2023-07-24T13:32:04.482Z,26.38
2023-07-24T13:34:32.306Z,27.01
2023-07-24T13:37:00.233Z,26.43
2023-07-24T13:39:29.640Z,27.31
2023-07-24T13:41:57.536Z,27.48
2023-07-24T13:44:25.548Z,27.63
2023-07-24T13:46:53.278Z,27.14
2023-07-24T13:49:20.969Z,26.92
2023-07-24T13:51:48.901Z,27.78
2023-07-24T13:54:16.571Z,28.15
2023-07-24T13:56:44.292Z,27.69
2023-07-24T13:59:12.254Z,26.99
2023-07-24T14:01:39.949Z,26.85
2023-07-24T14:04:07.882Z,26.21
2023-07-24T14:06:35.769Z,26.39
2023-07-24T14:09:04.408Z,25.32
2023-07-24T14:11:32.382Z,25.09
2023-07-24T14:14:00.135Z,25.00
2023-07-24T14:16:27.579Z,25.00
2023-07-24T14:18:55.284Z,25.28
2023-07-24T14:21:22.725Z,25.70
2023-07-24T14:23:50.154Z,26.05
2023-07-24T14:26:17.890Z,25.81
2023-07-24T14:28:45.369Z,24.41
2023-07-24T14:31:12.823Z,24.95
2023-07-24T14:33:40.527Z,24.96
2023-07-24T14:36:08.020Z,25.12
2023-07-24T14:38:35.467Z,25.52
2023-07-24T14:41:03.157Z,25.13
2023-07-24T14:43:30.577Z,24.90
2023-07-24T14:45:58.059Z,25.32
2023-07-24T14:48:25.896Z,24.71
2023-07-24T14:50:53.348Z,25.16
2023-07-24T14:53:20.750Z,25.19
2023-07-24T14:55:48.455Z,25.39
2023-07-24T14:58:15.859Z,25.10
2023-07-24T15:00:45.850Z,25.15
2023-07-24T15:03:14.956Z,25.03
2023-07-24T15:05:42.524Z,25.48
2023-07-24T15:08:10.075Z,25.66
2023-07-24T15:10:37.824Z,25.81
2023-07-24T15:13:05.285Z,25.42
2023-07-24T15:15:32.693Z,25.23
2023-07-24T15:18:00.486Z,25.54
2023-07-24T15:20:28.026Z,25.23
2023-07-24T15:22:55.581Z,25.62
2023-07-24T15:25:23.266Z,25.38
2023-07-24T15:27:50.672Z,25.37
2023-07-24T15:30:18.089Z,25.22
2023-07-24T15:32:47.385Z,25.32
2023-07-24T15:35:14.961Z,25.28
2023-07-24T15:37:42.560Z,25.23
2023-07-24T15:40:12.288Z,25.32
2023-07-24T15:42:41.159Z,26.43
2023-07-24T15:45:09.226Z,26.46
2023-07-24T15:47:36.943Z,26.55
2023-07-24T15:50:05.772Z,27.15
2023-07-24T15:52:33.297Z,27.36
2023-07-24T15:55:01.152Z,27.15
2023-07-24T15:57:28.630Z,27.31
2023-07-24T15:59:56.078Z,27.42
2023-07-24T16:02:23.827Z,27.11
2023-07-24T16:04:52.437Z,27.72
2023-07-24T16:07:19.948Z,27.16
2023-07-24T16:09:47.407Z,27.76
2023-07-24T16:12:15.082Z,27.63
2023-07-24T16:14:42.758Z,27.70
2023-07-24T16:17:10.288Z,28.64
2023-07-24T16:19:39.992Z,28.44
2023-07-24T16:22:07.435Z,28.44
2023-07-24T16:24:35.230Z,28.75
2023-07-24T16:27:04.892Z,29.04
2023-07-24T16:29:33.476Z,29.37
2023-07-24T16:32:01.004Z,29.65
2023-07-24T16:34:29.287Z,29.41
2023-07-24T16:36:57.078Z,29.88
2023-07-24T16:39:25.840Z,30.33
2023-07-24T16:41:53.598Z,30.07
2023-07-24T16:46:48.345Z,30.20
2023-07-24T16:49:16.060Z,30.39
2023-07-24T16:51:43.421Z,30.33
2023-07-24T16:54:11.373Z,30.65
2023-07-24T16:56:39.004Z,30.45
2023-07-24T16:59:06.394Z,31.08
2023-07-24T17:01:34.732Z,31.50
2023-07-24T17:04:02.940Z,31.20
2023-07-24T17:06:30.384Z,32.38
2023-07-24T17:08:57.837Z,31.60
2023-07-24T17:11:25.464Z,31.71
2023-07-24T17:13:52.923Z,32.22
2023-07-24T17:16:20.303Z,32.57
2023-07-24T17:18:55.059Z,32.93
2023-07-24T17:21:23.156Z,32.88
2023-07-24T17:23:50.922Z,32.96
2023-07-24T17:26:18.377Z,32.88
2023-07-24T17:28:47.258Z,32.72
2023-07-24T17:31:15.078Z,33.82
2023-07-24T17:33:42.501Z,33.27
2023-07-24T17:36:09.949Z,33.48
2023-07-24T17:38:37.590Z,33.45
2023-07-24T17:41:05.338Z,33.26
2023-07-24T17:43:32.753Z,33.48
2023-07-24T17:46:00.461Z,33.47
2023-07-24T17:48:27.911Z,33.86
2023-07-24T17:50:55.330Z,34.28
2023-07-24T17:53:23.057Z,34.16
2023-07-24T17:55:51.632Z,34.94
2023-07-24T17:58:19.257Z,34.83
2023-07-24T18:00:47.127Z,35.13
2023-07-24T18:03:15.108Z,35.05
2023-07-24T18:05:42.645Z,35.05
2023-07-24T18:08:10.096Z,34.76
2023-07-24T18:10:37.779Z,35.18
2023-07-24T18:13:05.172Z,35.17
2023-07-24T18:15:32.548Z,35.33
2023-07-24T18:18:00.636Z,35.50
2023-07-24T18:20:28.007Z,36.10
2023-07-24T18:22:55.354Z,35.46
2023-07-24T18:25:23.002Z,36.13
2023-07-24T18:27:50.455Z,36.06
2023-07-24T18:30:17.858Z,36.14
2023-07-24T18:32:45.605Z,36.03
2023-07-24T18:35:14.076Z,36.46
2023-07-24T18:37:41.507Z,36.36
2023-07-24T18:40:09.623Z,36.46
2023-07-24T18:42:37.140Z,36.43
2023-07-24T18:45:05.214Z,36.84
2023-07-24T18:47:35.235Z,36.97
2023-07-24T18:50:02.809Z,37.04
2023-07-24T18:52:31.232Z,37.16
2023-07-24T18:55:00.432Z,37.64
2023-07-24T18:57:27.852Z,37.68
2023-07-24T18:59:55.217Z,37.86
2023-07-24T19:02:22.898Z,38.14
2023-07-24T19:04:50.283Z,38.59
2023-07-24T19:07:17.749Z,38.93
2023-07-24T19:09:45.430Z,39.69
2023-07-24T19:12:12.792Z,39.55
2023-07-24T19:14:41.450Z,40.13
2023-07-24T19:17:09.259Z,40.33
2023-07-24T19:19:36.778Z,39.99
2023-07-24T19:22:04.704Z,40.37
2023-07-24T19:24:32.846Z,41.02
2023-07-24T19:27:00.811Z,41.49
2023-07-24T19:29:28.227Z,41.65
2023-07-24T19:31:55.913Z,42.05
2023-07-24T19:34:23.346Z,41.84
2023-07-24T19:36:52.392Z,41.94
2023-07-24T19:39:20.052Z,42.24
2023-07-24T19:41:47.458Z,42.37
2023-07-24T19:44:14.935Z,42.63
2023-07-24T19:46:42.632Z,42.75
2023-07-24T19:49:10.045Z,43.50
2023-07-24T19:51:37.474Z,44.23
2023-07-24T19:54:05.151Z,43.80
2023-07-24T19:56:32.541Z,42.95
2023-07-24T19:58:59.954Z,42.53
2023-07-24T20:01:28.449Z,43.51
2023-07-24T20:03:56.344Z,42.97
2023-07-24T20:06:23.776Z,42.83
2023-07-24T20:08:51.163Z,43.11
2023-07-24T20:11:18.839Z,43.53
2023-07-24T20:13:46.180Z,44.30
2023-07-24T20:16:13.641Z,43.75
2023-07-24T20:18:41.317Z,43.76
2023-07-24T20:21:08.727Z,43.45
2023-07-24T20:23:36.106Z,44.93
2023-07-24T20:26:03.884Z,44.66
2023-07-24T20:28:31.242Z,44.17
2023-07-24T20:30:59.192Z,43.85
2023-07-24T20:33:27.725Z,43.45
2023-07-24T20:35:55.102Z,44.91
2023-07-24T20:38:27.143Z,43.78
2023-07-24T20:40:54.900Z,43.73
2023-07-24T20:43:22.314Z,44.04
2023-07-24T20:45:51.819Z,44.26
2023-07-24T20:48:19.764Z,44.63
2023-07-24T20:50:47.210Z,44.51
2023-07-24T20:53:14.707Z,44.28
2023-07-24T20:55:42.414Z,45.12
2023-07-24T20:58:10.713Z,44.49
2023-07-24T21:00:38.069Z,44.64
2023-07-24T21:03:05.883Z,44.79
2023-07-24T21:05:36.302Z,44.12
2023-07-24T21:08:05.245Z,43.87
2023-07-24T21:10:32.937Z,43.25
2023-07-24T21:13:00.334Z,43.37
2023-07-24T21:15:27.725Z,43.50
2023-07-24T21:17:55.449Z,43.20
2023-07-24T21:20:22.898Z,42.91
2023-07-24T21:22:50.333Z,43.65
2023-07-24T21:25:19.400Z,43.58
2023-07-24T21:27:46.812Z,43.66
2023-07-24T21:30:14.319Z,44.02
2023-07-24T21:32:42.018Z,44.02
2023-07-24T21:35:10.861Z,43.97
2023-07-24T21:37:39.913Z,44.56
2023-07-24T21:40:08.475Z,44.86
2023-07-24T21:42:35.877Z,44.66
2023-07-24T21:45:04.074Z,45.05
2023-07-24T21:47:31.937Z,45.55
2023-07-24T21:49:59.397Z,45.35
2023-07-24T21:52:26.894Z,45.40
2023-07-24T21:54:54.528Z,45.44
2023-07-24T21:57:22.716Z,46.10
2023-07-24T21:59:50.286Z,46.31
2023-07-24T22:02:17.964Z,46.37
2023-07-24T22:04:45.855Z,46.45
2023-07-24T22:07:13.229Z,46.81
2023-07-24T22:09:40.587Z,46.11
2023-07-24T22:12:08.328Z,46.53
2023-07-24T22:14:35.767Z,46.73
2023-07-24T22:17:03.258Z,46.61
2023-07-24T22:19:30.996Z,46.30
2023-07-24T22:21:58.484Z,46.12
2023-07-24T22:24:25.891Z,45.81
2023-07-24T22:26:53.566Z,45.25
2023-07-24T22:29:21.058Z,45.15
2023-07-24T22:31:48.463Z,44.67
2023-07-24T22:34:16.134Z,43.71
2023-07-24T22:36:44.711Z,44.19
2023-07-24T22:39:12.135Z,44.41
2023-07-24T22:41:39.816Z,44.04
2023-07-24T22:44:07.477Z,43.56
2023-07-24T22:46:35.020Z,44.04
2023-07-24T22:49:02.863Z,43.74
2023-07-24T22:51:30.532Z,45.10
2023-07-24T22:53:58.135Z,45.02
2023-07-24T22:56:25.811Z,44.80
2023-07-24T22:59:05.362Z,44.91
2023-07-24T23:01:33.740Z,44.75
2023-07-24T23:04:01.783Z,44.89
2023-07-24T23:06:29.279Z,44.29
2023-07-24T23:08:56.925Z,43.80
2023-07-24T23:11:24.299Z,43.83
2023-07-24T23:13:51.716Z,43.99
2023-07-24T23:16:19.416Z,43.86
2023-07-24T23:18:46.880Z,43.81
2023-07-24T23:21:14.275Z,43.85
2023-07-24T23:23:41.951Z,43.58
2023-07-24T23:26:09.400Z,41.81
2023-07-24T23:28:36.811Z,42.42
2023-07-24T23:31:07.029Z,42.75
2023-07-24T23:33:34.778Z,43.89
2023-07-24T23:36:02.746Z,43.53
2023-07-24T23:38:30.717Z,43.55
2023-07-24T23:41:01.694Z,44.89
2023-07-24T23:43:29.127Z,45.38
2023-07-24T23:45:56.858Z,46.01
2023-07-24T23:48:24.500Z,44.90
2023-07-24T23:50:52.368Z,46.09
2023-07-24T23:53:20.701Z,46.04
2023-07-24T23:55:48.169Z,45.74
2023-07-24T23:58:15.536Z,45.76
